sensor_id;sensor_type;location;lat;lon;timestamp;temperature;humidity
16289;DHT22;26089;43.538;5.250;2023-02-27T00:01:13;2.30;99.90
16289;DHT22;26089;43.538;5.250;2023-02-27T00:03:40;3.20;99.90
16289;DHT22;26089;43.538;5.250;2023-02-27T00:06:07;3.10;99.90
16289;DHT22;26089;43.538;5.250;2023-02-27T00:08:34;2.20;99.90
16289;DHT22;26089;43.538;5.250;2023-02-27T00:11:01;2.20;99.90
16289;DHT22;26089;43.538;5.250;2023-02-27T00:13:28;2.20;99.90
16289;DHT22;26089;43.538;5.250;2023-02-27T00:15:56;2.70;99.90
16289;DHT22;26089;43.538;5.250;2023-02-27T00:18:23;2.20;99.90
16289;DHT22;26089;43.538;5.250;2023-02-27T00:20:50;2.10;99.90
16289;DHT22;26089;43.538;5.250;2023-02-27T00:23:17;2.20;99.90
16289;DHT22;26089;43.538;5.250;2023-02-27T00:25:44;2.60;99.90
16289;DHT22;26089;43.538;5.250;2023-02-27T00:28:12;2.30;99.90
16289;DHT22;26089;43.538;5.250;2023-02-27T00:30:39;2.30;99.90
16289;DHT22;26089;43.538;5.250;2023-02-27T00:33:07;2.30;99.90
16289;DHT22;26089;43.538;5.250;2023-02-27T00:35:34;2.20;99.90
16289;DHT22;26089;43.538;5.250;2023-02-27T00:38:02;2.10;99.90
16289;DHT22;26089;43.538;5.250;2023-02-27T00:40:29;3.20;99.90
16289;DHT22;26089;43.538;5.250;2023-02-27T00:42:56;2.10;99.90
16289;DHT22;26089;43.538;5.250;2023-02-27T00:45:22;2.10;99.90
16289;DHT22;26089;43.538;5.250;2023-02-27T00:47:49;3.00;99.90
16289;DHT22;26089;43.538;5.250;2023-02-27T00:50:18;2.50;99.90
16289;DHT22;26089;43.538;5.250;2023-02-27T00:52:45;2.20;99.90
16289;DHT22;26089;43.538;5.250;2023-02-27T00:55:12;2.20;99.90
16289;DHT22;26089;43.538;5.250;2023-02-27T00:57:39;2.20;99.90
16289;DHT22;26089;43.538;5.250;2023-02-27T01:00:08;2.20;99.90
16289;DHT22;26089;43.538;5.250;2023-02-27T01:02:35;2.30;99.90
16289;DHT22;26089;43.538;5.250;2023-02-27T01:05:04;3.50;99.90
16289;DHT22;26089;43.538;5.250;2023-02-27T01:07:32;2.30;99.90
16289;DHT22;26089;43.538;5.250;2023-02-27T01:10:00;2.30;99.90
16289;DHT22;26089;43.538;5.250;2023-02-27T01:12:27;3.20;99.90
16289;DHT22;26089;43.538;5.250;2023-02-27T01:14:54;2.40;99.90
16289;DHT22;26089;43.538;5.250;2023-02-27T01:17:21;2.30;99.90
16289;DHT22;26089;43.538;5.250;2023-02-27T01:19:48;2.50;99.90
16289;DHT22;26089;43.538;5.250;2023-02-27T01:22:16;2.20;99.90
16289;DHT22;26089;43.538;5.250;2023-02-27T01:24:44;2.20;99.90
16289;DHT22;26089;43.538;5.250;2023-02-27T01:27:11;1.50;99.90
16289;DHT22;26089;43.538;5.250;2023-02-27T01:29:38;2.30;99.90
16289;DHT22;26089;43.538;5.250;2023-02-27T01:32:05;2.50;99.90
16289;DHT22;26089;43.538;5.250;2023-02-27T01:34:32;2.40;99.90
16289;DHT22;26089;43.538;5.250;2023-02-27T01:36:59;2.40;99.90
16289;DHT22;26089;43.538;5.250;2023-02-27T01:39:26;2.40;99.90
16289;DHT22;26089;43.538;5.250;2023-02-27T01:41:55;2.40;99.90
16289;DHT22;26089;43.538;5.250;2023-02-27T01:44:26;2.70;99.90
16289;DHT22;26089;43.538;5.250;2023-02-27T01:46:53;2.40;99.90
16289;DHT22;26089;43.538;5.250;2023-02-27T01:49:23;2.60;99.90
16289;DHT22;26089;43.538;5.250;2023-02-27T01:51:53;2.30;99.90
16289;DHT22;26089;43.538;5.250;2023-02-27T01:54:23;2.30;99.90
16289;DHT22;26089;43.538;5.250;2023-02-27T01:56:51;2.40;99.90
16289;DHT22;26089;43.538;5.250;2023-02-27T01:59:20;2.30;99.90
16289;DHT22;26089;43.538;5.250;2023-02-27T02:01:47;2.30;99.90
16289;DHT22;26089;43.538;5.250;2023-02-27T02:04:20;2.20;99.90
16289;DHT22;26089;43.538;5.250;2023-02-27T02:06:52;3.00;99.90
16289;DHT22;26089;43.538;5.250;2023-02-27T02:09:21;3.20;99.90
16289;DHT22;26089;43.538;5.250;2023-02-27T02:11:49;2.30;99.90
16289;DHT22;26089;43.538;5.250;2023-02-27T02:14:16;2.30;99.90
16289;DHT22;26089;43.538;5.250;2023-02-27T02:16:53;2.40;99.90
16289;DHT22;26089;43.538;5.250;2023-02-27T02:26:19;2.50;99.90
16289;DHT22;26089;43.538;5.250;2023-02-27T02:29:13;2.50;99.90
16289;DHT22;26089;43.538;5.250;2023-02-27T02:32:22;3.00;99.90
16289;DHT22;26089;43.538;5.250;2023-02-27T02:35:16;2.50;99.90
16289;DHT22;26089;43.538;5.250;2023-02-27T02:40:48;2.70;99.90
16289;DHT22;26089;43.538;5.250;2023-02-27T02:43:24;2.60;99.90
16289;DHT22;26089;43.538;5.250;2023-02-27T02:46:01;2.60;99.90
16289;DHT22;26089;43.538;5.250;2023-02-27T02:48:34;2.60;99.90
16289;DHT22;26089;43.538;5.250;2023-02-27T02:51:07;3.40;99.90
16289;DHT22;26089;43.538;5.250;2023-02-27T02:53:40;2.70;99.90
16289;DHT22;26089;43.538;5.250;2023-02-27T02:56:18;2.90;99.90
16289;DHT22;26089;43.538;5.250;2023-02-27T02:58:53;2.40;99.90
16289;DHT22;26089;43.538;5.250;2023-02-27T03:01:29;2.50;99.90
16289;DHT22;26089;43.538;5.250;2023-02-27T03:04:02;1.80;99.90
16289;DHT22;26089;43.538;5.250;2023-02-27T03:06:33;2.50;99.90
16289;DHT22;26089;43.538;5.250;2023-02-27T03:09:08;2.50;99.90
16289;DHT22;26089;43.538;5.250;2023-02-27T03:11:42;2.50;99.90
16289;DHT22;26089;43.538;5.250;2023-02-27T03:14:15;2.50;99.90
16289;DHT22;26089;43.538;5.250;2023-02-27T03:16:46;2.60;99.90
16289;DHT22;26089;43.538;5.250;2023-02-27T03:19:16;2.60;99.90
16289;DHT22;26089;43.538;5.250;2023-02-27T03:21:48;2.70;99.90
16289;DHT22;26089;43.538;5.250;2023-02-27T03:24:19;2.60;99.90
16289;DHT22;26089;43.538;5.250;2023-02-27T03:26:51;2.60;99.90
16289;DHT22;26089;43.538;5.250;2023-02-27T03:29:21;2.60;99.90
16289;DHT22;26089;43.538;5.250;2023-02-27T03:31:55;2.60;99.90
16289;DHT22;26089;43.538;5.250;2023-02-27T03:34:28;2.60;99.90
16289;DHT22;26089;43.538;5.250;2023-02-27T03:37:00;2.50;99.90
16289;DHT22;26089;43.538;5.250;2023-02-27T03:39:36;2.50;99.90
16289;DHT22;26089;43.538;5.250;2023-02-27T03:42:13;2.50;99.90
16289;DHT22;26089;43.538;5.250;2023-02-27T03:44:51;2.40;99.90
16289;DHT22;26089;43.538;5.250;2023-02-27T03:47:21;2.50;99.90
16289;DHT22;26089;43.538;5.250;2023-02-27T03:49:48;2.50;99.90
16289;DHT22;26089;43.538;5.250;2023-02-27T03:52:17;3.10;99.90
16289;DHT22;26089;43.538;5.250;2023-02-27T03:54:49;2.40;99.90
16289;DHT22;26089;43.538;5.250;2023-02-27T03:57:20;2.60;99.90
16289;DHT22;26089;43.538;5.250;2023-02-27T03:59:47;1.80;99.90
16289;DHT22;26089;43.538;5.250;2023-02-27T04:02:15;2.60;99.90
16289;DHT22;26089;43.538;5.250;2023-02-27T04:04:42;2.40;99.90
16289;DHT22;26089;43.538;5.250;2023-02-27T04:07:14;2.50;99.90
16289;DHT22;26089;43.538;5.250;2023-02-27T04:10:25;2.50;99.90
16289;DHT22;26089;43.538;5.250;2023-02-27T04:13:20;2.50;99.90
16289;DHT22;26089;43.538;5.250;2023-02-27T04:16:01;2.60;99.90
16289;DHT22;26089;43.538;5.250;2023-02-27T04:18:41;1.90;99.90
16289;DHT22;26089;43.538;5.250;2023-02-27T04:21:18;2.50;99.90
16289;DHT22;26089;43.538;5.250;2023-02-27T04:23:53;2.70;99.90
16289;DHT22;26089;43.538;5.250;2023-02-27T04:26:25;2.30;99.90
16289;DHT22;26089;43.538;5.250;2023-02-27T04:29:01;2.60;99.90
16289;DHT22;26089;43.538;5.250;2023-02-27T04:31:31;2.10;99.90
16289;DHT22;26089;43.538;5.250;2023-02-27T04:34:07;2.70;99.90
16289;DHT22;26089;43.538;5.250;2023-02-27T04:36:41;2.90;99.90
16289;DHT22;26089;43.538;5.250;2023-02-27T04:39:16;2.60;99.90
16289;DHT22;26089;43.538;5.250;2023-02-27T04:41:47;2.60;99.90
16289;DHT22;26089;43.538;5.250;2023-02-27T04:44:19;2.60;99.90
16289;DHT22;26089;43.538;5.250;2023-02-27T04:46:47;2.60;99.90
16289;DHT22;26089;43.538;5.250;2023-02-27T04:49:19;2.60;99.90
16289;DHT22;26089;43.538;5.250;2023-02-27T04:51:52;2.70;99.90
16289;DHT22;26089;43.538;5.250;2023-02-27T04:54:25;2.70;99.90
16289;DHT22;26089;43.538;5.250;2023-02-27T04:56:56;2.70;99.90
16289;DHT22;26089;43.538;5.250;2023-02-27T04:59:31;2.70;99.90
16289;DHT22;26089;43.538;5.250;2023-02-27T05:02:01;3.30;99.90
16289;DHT22;26089;43.538;5.250;2023-02-27T05:04:33;2.60;99.90
16289;DHT22;26089;43.538;5.250;2023-02-27T05:07:02;2.60;99.90
16289;DHT22;26089;43.538;5.250;2023-02-27T05:09:35;2.50;99.90
16289;DHT22;26089;43.538;5.250;2023-02-27T05:12:10;2.70;99.90
16289;DHT22;26089;43.538;5.250;2023-02-27T05:14:45;2.80;99.90
16289;DHT22;26089;43.538;5.250;2023-02-27T05:17:18;3.00;99.90
16289;DHT22;26089;43.538;5.250;2023-02-27T05:19:46;2.60;99.90
16289;DHT22;26089;43.538;5.250;2023-02-27T05:22:21;2.50;99.90
16289;DHT22;26089;43.538;5.250;2023-02-27T05:24:56;2.50;99.90
16289;DHT22;26089;43.538;5.250;2023-02-27T05:27:32;2.50;99.90
16289;DHT22;26089;43.538;5.250;2023-02-27T05:30:07;2.50;99.90
16289;DHT22;26089;43.538;5.250;2023-02-27T05:32:41;2.50;99.90
16289;DHT22;26089;43.538;5.250;2023-02-27T05:35:17;2.50;99.90
16289;DHT22;26089;43.538;5.250;2023-02-27T05:37:48;2.50;99.90
16289;DHT22;26089;43.538;5.250;2023-02-27T05:40:20;2.50;99.90
16289;DHT22;26089;43.538;5.250;2023-02-27T05:42:53;3.00;99.90
16289;DHT22;26089;43.538;5.250;2023-02-27T05:45:27;2.50;99.90
16289;DHT22;26089;43.538;5.250;2023-02-27T05:47:57;2.70;99.90
16289;DHT22;26089;43.538;5.250;2023-02-27T05:50:29;3.80;99.90
16289;DHT22;26089;43.538;5.250;2023-02-27T05:53:01;2.60;99.90
16289;DHT22;26089;43.538;5.250;2023-02-27T05:55:32;2.60;99.90
16289;DHT22;26089;43.538;5.250;2023-02-27T05:58:05;3.00;99.90
16289;DHT22;26089;43.538;5.250;2023-02-27T06:00:36;2.50;99.90
16289;DHT22;26089;43.538;5.250;2023-02-27T06:03:04;2.60;99.90
16289;DHT22;26089;43.538;5.250;2023-02-27T06:05:32;2.50;99.90
16289;DHT22;26089;43.538;5.250;2023-02-27T06:07:59;2.50;99.90
16289;DHT22;26089;43.538;5.250;2023-02-27T06:10:26;2.50;99.90
16289;DHT22;26089;43.538;5.250;2023-02-27T06:12:53;2.60;99.90
16289;DHT22;26089;43.538;5.250;2023-02-27T06:15:20;3.70;99.90
16289;DHT22;26089;43.538;5.250;2023-02-27T06:17:49;2.50;99.90
16289;DHT22;26089;43.538;5.250;2023-02-27T06:20:16;2.40;99.90
16289;DHT22;26089;43.538;5.250;2023-02-27T06:22:43;2.50;99.90
16289;DHT22;26089;43.538;5.250;2023-02-27T06:25:11;2.40;99.90
16289;DHT22;26089;43.538;5.250;2023-02-27T06:27:38;3.20;99.90
16289;DHT22;26089;43.538;5.250;2023-02-27T06:30:06;2.50;99.90
16289;DHT22;26089;43.538;5.250;2023-02-27T06:32:33;2.40;99.90
16289;DHT22;26089;43.538;5.250;2023-02-27T06:35:01;3.20;99.90
16289;DHT22;26089;43.538;5.250;2023-02-27T06:37:28;2.50;99.90
16289;DHT22;26089;43.538;5.250;2023-02-27T06:39:55;2.50;99.90
16289;DHT22;26089;43.538;5.250;2023-02-27T06:42:22;2.80;99.90
16289;DHT22;26089;43.538;5.250;2023-02-27T06:44:50;2.50;99.90
16289;DHT22;26089;43.538;5.250;2023-02-27T06:47:17;2.50;99.90
16289;DHT22;26089;43.538;5.250;2023-02-27T06:49:44;2.50;99.90
16289;DHT22;26089;43.538;5.250;2023-02-27T06:52:12;2.60;99.90
16289;DHT22;26089;43.538;5.250;2023-02-27T06:54:39;2.60;99.90
16289;DHT22;26089;43.538;5.250;2023-02-27T06:57:06;2.50;99.90
16289;DHT22;26089;43.538;5.250;2023-02-27T06:59:33;2.60;99.90
16289;DHT22;26089;43.538;5.250;2023-02-27T07:02:00;2.60;99.90
16289;DHT22;26089;43.538;5.250;2023-02-27T07:04:27;2.60;99.90
16289;DHT22;26089;43.538;5.250;2023-02-27T07:06:54;2.70;99.90
16289;DHT22;26089;43.538;5.250;2023-02-27T07:09:23;3.40;99.90
16289;DHT22;26089;43.538;5.250;2023-02-27T07:11:50;2.70;99.90
16289;DHT22;26089;43.538;5.250;2023-02-27T07:14:17;2.70;99.90
16289;DHT22;26089;43.538;5.250;2023-02-27T07:16:44;2.80;99.90
16289;DHT22;26089;43.538;5.250;2023-02-27T07:19:11;2.80;99.90
16289;DHT22;26089;43.538;5.250;2023-02-27T07:21:38;2.80;99.90
16289;DHT22;26089;43.538;5.250;2023-02-27T07:24:06;2.90;99.90
16289;DHT22;26089;43.538;5.250;2023-02-27T07:26:34;2.90;99.90
16289;DHT22;26089;43.538;5.250;2023-02-27T07:29:02;2.90;99.90
16289;DHT22;26089;43.538;5.250;2023-02-27T07:31:29;3.00;99.90
16289;DHT22;26089;43.538;5.250;2023-02-27T07:33:56;3.00;99.90
16289;DHT22;26089;43.538;5.250;2023-02-27T07:36:23;3.00;99.90
16289;DHT22;26089;43.538;5.250;2023-02-27T07:38:50;3.20;99.90
16289;DHT22;26089;43.538;5.250;2023-02-27T07:41:17;3.10;99.90
16289;DHT22;26089;43.538;5.250;2023-02-27T07:43:45;3.20;99.90
16289;DHT22;26089;43.538;5.250;2023-02-27T07:46:12;3.20;99.90
16289;DHT22;26089;43.538;5.250;2023-02-27T07:48:40;3.20;99.90
16289;DHT22;26089;43.538;5.250;2023-02-27T07:51:06;2.70;99.90
16289;DHT22;26089;43.538;5.250;2023-02-27T07:53:34;3.30;99.90
16289;DHT22;26089;43.538;5.250;2023-02-27T07:56:01;2.80;99.90
16289;DHT22;26089;43.538;5.250;2023-02-27T07:58:28;3.30;99.90
16289;DHT22;26089;43.538;5.250;2023-02-27T08:00:56;3.30;99.90
16289;DHT22;26089;43.538;5.250;2023-02-27T08:03:23;3.40;99.90
16289;DHT22;26089;43.538;5.250;2023-02-27T08:05:50;3.30;99.90
16289;DHT22;26089;43.538;5.250;2023-02-27T08:08:17;3.40;99.90
16289;DHT22;26089;43.538;5.250;2023-02-27T08:10:44;3.40;99.90
16289;DHT22;26089;43.538;5.250;2023-02-27T08:13:11;3.00;99.90
16289;DHT22;26089;43.538;5.250;2023-02-27T08:15:38;3.30;99.90
16289;DHT22;26089;43.538;5.250;2023-02-27T08:18:07;3.60;99.90
16289;DHT22;26089;43.538;5.250;2023-02-27T08:20:34;3.70;99.90
16289;DHT22;26089;43.538;5.250;2023-02-27T08:23:01;3.70;99.90
16289;DHT22;26089;43.538;5.250;2023-02-27T08:25:28;3.50;99.90
16289;DHT22;26089;43.538;5.250;2023-02-27T08:27:55;3.70;99.90
16289;DHT22;26089;43.538;5.250;2023-02-27T08:30:22;3.80;99.90
16289;DHT22;26089;43.538;5.250;2023-02-27T08:32:49;3.80;99.90
16289;DHT22;26089;43.538;5.250;2023-02-27T08:35:18;3.90;99.90
16289;DHT22;26089;43.538;5.250;2023-02-27T08:37:45;3.90;99.90
16289;DHT22;26089;43.538;5.250;2023-02-27T08:40:13;4.00;99.90
16289;DHT22;26089;43.538;5.250;2023-02-27T08:42:40;4.00;99.90
16289;DHT22;26089;43.538;5.250;2023-02-27T08:45:09;4.50;99.90
16289;DHT22;26089;43.538;5.250;2023-02-27T08:47:36;4.00;99.90
16289;DHT22;26089;43.538;5.250;2023-02-27T08:50:04;3.80;99.90
16289;DHT22;26089;43.538;5.250;2023-02-27T08:52:33;4.00;99.90
16289;DHT22;26089;43.538;5.250;2023-02-27T08:55:00;4.20;99.90
16289;DHT22;26089;43.538;5.250;2023-02-27T08:57:27;4.20;99.90
16289;DHT22;26089;43.538;5.250;2023-02-27T08:59:54;4.30;99.90
16289;DHT22;26089;43.538;5.250;2023-02-27T09:02:21;4.40;99.90
16289;DHT22;26089;43.538;5.250;2023-02-27T09:04:50;4.30;99.90
16289;DHT22;26089;43.538;5.250;2023-02-27T09:07:18;4.30;99.90
16289;DHT22;26089;43.538;5.250;2023-02-27T09:09:47;5.00;99.90
16289;DHT22;26089;43.538;5.250;2023-02-27T09:12:14;4.70;99.90
16289;DHT22;26089;43.538;5.250;2023-02-27T09:14:41;4.50;99.90
16289;DHT22;26089;43.538;5.250;2023-02-27T09:17:08;4.60;99.90
16289;DHT22;26089;43.538;5.250;2023-02-27T09:19:35;4.70;99.90
16289;DHT22;26089;43.538;5.250;2023-02-27T09:22:02;4.60;99.90
16289;DHT22;26089;43.538;5.250;2023-02-27T09:24:29;4.90;99.90
16289;DHT22;26089;43.538;5.250;2023-02-27T09:26:57;5.00;99.90
16289;DHT22;26089;43.538;5.250;2023-02-27T09:29:24;5.00;99.90
16289;DHT22;26089;43.538;5.250;2023-02-27T09:31:52;5.10;99.90
16289;DHT22;26089;43.538;5.250;2023-02-27T09:34:19;4.70;99.90
16289;DHT22;26089;43.538;5.250;2023-02-27T09:36:46;5.20;99.90
16289;DHT22;26089;43.538;5.250;2023-02-27T09:39:13;5.20;99.90
16289;DHT22;26089;43.538;5.250;2023-02-27T09:41:55;5.40;99.90
16289;DHT22;26089;43.538;5.250;2023-02-27T09:44:34;6.00;99.90
16289;DHT22;26089;43.538;5.250;2023-02-27T09:47:03;5.70;99.90
16289;DHT22;26089;43.538;5.250;2023-02-27T09:49:34;5.70;99.90
16289;DHT22;26089;43.538;5.250;2023-02-27T09:52:12;6.00;99.90
16289;DHT22;26089;43.538;5.250;2023-02-27T09:54:40;6.10;99.90
16289;DHT22;26089;43.538;5.250;2023-02-27T09:57:14;6.10;99.90
16289;DHT22;26089;43.538;5.250;2023-02-27T09:59:47;6.10;99.90
16289;DHT22;26089;43.538;5.250;2023-02-27T10:02:29;6.20;99.90
16289;DHT22;26089;43.538;5.250;2023-02-27T10:05:02;5.80;99.90
16289;DHT22;26089;43.538;5.250;2023-02-27T10:07:39;6.00;99.90
16289;DHT22;26089;43.538;5.250;2023-02-27T10:10:15;6.10;99.90
16289;DHT22;26089;43.538;5.250;2023-02-27T10:12:56;6.30;99.90
16289;DHT22;26089;43.538;5.250;2023-02-27T10:15:30;6.50;99.90
16289;DHT22;26089;43.538;5.250;2023-02-27T10:17:59;6.50;99.90
16289;DHT22;26089;43.538;5.250;2023-02-27T10:20:31;6.60;99.90
16289;DHT22;26089;43.538;5.250;2023-02-27T10:23:02;7.00;99.90
16289;DHT22;26089;43.538;5.250;2023-02-27T10:25:33;6.50;99.90
16289;DHT22;26089;43.538;5.250;2023-02-27T10:28:11;6.40;99.90
16289;DHT22;26089;43.538;5.250;2023-02-27T10:30:40;6.40;99.90
16289;DHT22;26089;43.538;5.250;2023-02-27T10:33:14;6.40;99.90
16289;DHT22;26089;43.538;5.250;2023-02-27T10:35:45;6.50;99.90
16289;DHT22;26089;43.538;5.250;2023-02-27T10:38:15;6.10;99.90
16289;DHT22;26089;43.538;5.250;2023-02-27T10:40:42;6.50;99.90
16289;DHT22;26089;43.538;5.250;2023-02-27T10:43:13;6.50;99.90
16289;DHT22;26089;43.538;5.250;2023-02-27T10:45:42;6.50;99.90
16289;DHT22;26089;43.538;5.250;2023-02-27T10:48:09;7.30;99.90
16289;DHT22;26089;43.538;5.250;2023-02-27T10:50:38;6.80;99.90
16289;DHT22;26089;43.538;5.250;2023-02-27T10:53:15;6.60;99.90
16289;DHT22;26089;43.538;5.250;2023-02-27T10:55:46;6.50;99.90
16289;DHT22;26089;43.538;5.250;2023-02-27T10:58:17;6.50;99.90
16289;DHT22;26089;43.538;5.250;2023-02-27T11:00:53;6.70;99.90
16289;DHT22;26089;43.538;5.250;2023-02-27T11:03:23;6.60;99.90
16289;DHT22;26089;43.538;5.250;2023-02-27T11:05:55;6.60;99.90
16289;DHT22;26089;43.538;5.250;2023-02-27T11:08:24;6.50;99.90
16289;DHT22;26089;43.538;5.250;2023-02-27T11:10:55;6.40;99.90
16289;DHT22;26089;43.538;5.250;2023-02-27T11:13:25;6.30;99.90
16289;DHT22;26089;43.538;5.250;2023-02-27T11:16:04;6.30;99.90
16289;DHT22;26089;43.538;5.250;2023-02-27T11:18:33;6.30;99.90
16289;DHT22;26089;43.538;5.250;2023-02-27T11:21:18;6.30;99.90
16289;DHT22;26089;43.538;5.250;2023-02-27T11:23:53;6.10;99.90
16289;DHT22;26089;43.538;5.250;2023-02-27T11:26:24;6.40;99.90
16289;DHT22;26089;43.538;5.250;2023-02-27T11:29:12;7.10;99.90
16289;DHT22;26089;43.538;5.250;2023-02-27T11:31:47;6.20;99.90
16289;DHT22;26089;43.538;5.250;2023-02-27T11:34:20;6.40;99.90
16289;DHT22;26089;43.538;5.250;2023-02-27T11:36:50;6.50;99.90
16289;DHT22;26089;43.538;5.250;2023-02-27T11:39:26;6.30;99.90
16289;DHT22;26089;43.538;5.250;2023-02-27T11:41:56;6.40;99.90
16289;DHT22;26089;43.538;5.250;2023-02-27T11:44:26;6.50;99.90
16289;DHT22;26089;43.538;5.250;2023-02-27T11:47:11;6.80;99.90
16289;DHT22;26089;43.538;5.250;2023-02-27T11:49:48;6.60;99.90
16289;DHT22;26089;43.538;5.250;2023-02-27T11:52:22;6.60;99.90
16289;DHT22;26089;43.538;5.250;2023-02-27T11:54:56;6.50;99.90
16289;DHT22;26089;43.538;5.250;2023-02-27T11:57:26;6.10;99.90
16289;DHT22;26089;43.538;5.250;2023-02-27T11:59:58;6.40;99.90
16289;DHT22;26089;43.538;5.250;2023-02-27T12:02:33;6.30;99.90
16289;DHT22;26089;43.538;5.250;2023-02-27T12:05:12;6.50;99.90
16289;DHT22;26089;43.538;5.250;2023-02-27T12:07:44;6.40;99.90
16289;DHT22;26089;43.538;5.250;2023-02-27T12:10:17;6.40;99.90
16289;DHT22;26089;43.538;5.250;2023-02-27T12:12:48;6.40;99.90
16289;DHT22;26089;43.538;5.250;2023-02-27T12:15:25;6.40;99.90
16289;DHT22;26089;43.538;5.250;2023-02-27T12:18:02;5.90;99.90
16289;DHT22;26089;43.538;5.250;2023-02-27T12:20:35;6.40;99.90
16289;DHT22;26089;43.538;5.250;2023-02-27T12:23:14;6.50;99.90
16289;DHT22;26089;43.538;5.250;2023-02-27T12:25:45;6.40;99.90
16289;DHT22;26089;43.538;5.250;2023-02-27T12:28:28;6.30;99.90
16289;DHT22;26089;43.538;5.250;2023-02-27T12:31:20;6.20;99.90
16289;DHT22;26089;43.538;5.250;2023-02-27T12:33:55;7.30;99.90
16289;DHT22;26089;43.538;5.250;2023-02-27T12:36:24;6.10;99.90
16289;DHT22;26089;43.538;5.250;2023-02-27T12:38:51;6.00;99.90
16289;DHT22;26089;43.538;5.250;2023-02-27T12:41:31;5.90;99.90
16289;DHT22;26089;43.538;5.250;2023-02-27T12:44:21;5.80;99.90
16289;DHT22;26089;43.538;5.250;2023-02-27T12:46:57;5.90;99.90
16289;DHT22;26089;43.538;5.250;2023-02-27T12:49:39;5.90;99.90
16289;DHT22;26089;43.538;5.250;2023-02-27T12:52:16;5.70;99.90
16289;DHT22;26089;43.538;5.250;2023-02-27T12:54:54;5.70;99.90
16289;DHT22;26089;43.538;5.250;2023-02-27T13:00:25;5.80;99.90
16289;DHT22;26089;43.538;5.250;2023-02-27T13:03:02;5.80;99.90
16289;DHT22;26089;43.538;5.250;2023-02-27T13:05:40;6.10;99.90
16289;DHT22;26089;43.538;5.250;2023-02-27T13:08:19;6.00;99.90
16289;DHT22;26089;43.538;5.250;2023-02-27T13:10:50;5.70;99.90
16289;DHT22;26089;43.538;5.250;2023-02-27T13:13:24;5.60;99.90
16289;DHT22;26089;43.538;5.250;2023-02-27T13:15:55;5.50;99.90
16289;DHT22;26089;43.538;5.250;2023-02-27T13:18:39;5.60;99.90
16289;DHT22;26089;43.538;5.250;2023-02-27T13:21:16;5.60;99.90
16289;DHT22;26089;43.538;5.250;2023-02-27T13:23:54;5.60;99.90
16289;DHT22;26089;43.538;5.250;2023-02-27T13:26:26;5.70;99.90
16289;DHT22;26089;43.538;5.250;2023-02-27T13:28:54;5.80;99.90
16289;DHT22;26089;43.538;5.250;2023-02-27T13:31:28;5.70;99.90
16289;DHT22;26089;43.538;5.250;2023-02-27T13:34:10;5.70;99.90
16289;DHT22;26089;43.538;5.250;2023-02-27T13:36:43;5.70;99.90
16289;DHT22;26089;43.538;5.250;2023-02-27T13:39:36;5.70;99.90
16289;DHT22;26089;43.538;5.250;2023-02-27T13:42:04;5.70;99.90
16289;DHT22;26089;43.538;5.250;2023-02-27T13:44:51;5.60;99.90
16289;DHT22;26089;43.538;5.250;2023-02-27T13:47:39;5.50;99.90
16289;DHT22;26089;43.538;5.250;2023-02-27T13:53:20;5.20;99.90
16289;DHT22;26089;43.538;5.250;2023-02-27T13:55:51;4.70;99.90
16289;DHT22;26089;43.538;5.250;2023-02-27T13:58:21;5.30;99.90
16289;DHT22;26089;43.538;5.250;2023-02-27T14:00:58;6.20;99.90
16289;DHT22;26089;43.538;5.250;2023-02-27T14:03:28;5.40;99.90
16289;DHT22;26089;43.538;5.250;2023-02-27T14:06:01;5.40;99.90
16289;DHT22;26089;43.538;5.250;2023-02-27T14:08:38;5.40;99.90
16289;DHT22;26089;43.538;5.250;2023-02-27T14:11:16;5.40;99.90
16289;DHT22;26089;43.538;5.250;2023-02-27T14:16:56;5.60;99.90
16289;DHT22;26089;43.538;5.250;2023-02-27T14:19:51;5.60;99.90
16289;DHT22;26089;43.538;5.250;2023-02-27T14:22:46;5.90;99.90
16289;DHT22;26089;43.538;5.250;2023-02-27T14:25:36;5.70;99.90
16289;DHT22;26089;43.538;5.250;2023-02-27T14:28:09;5.70;99.90
16289;DHT22;26089;43.538;5.250;2023-02-27T14:30:41;5.70;99.90
16289;DHT22;26089;43.538;5.250;2023-02-27T14:33:17;5.50;99.90
16289;DHT22;26089;43.538;5.250;2023-02-27T14:35:49;6.10;99.90
16289;DHT22;26089;43.538;5.250;2023-02-27T14:38:19;6.20;99.90
16289;DHT22;26089;43.538;5.250;2023-02-27T14:40:59;6.20;99.90
16289;DHT22;26089;43.538;5.250;2023-02-27T14:43:36;6.30;99.90
16289;DHT22;26089;43.538;5.250;2023-02-27T14:46:23;6.30;99.90
16289;DHT22;26089;43.538;5.250;2023-02-27T14:48:56;7.10;99.90
16289;DHT22;26089;43.538;5.250;2023-02-27T14:51:24;6.20;99.90
16289;DHT22;26089;43.538;5.250;2023-02-27T14:54:00;6.10;99.90
16289;DHT22;26089;43.538;5.250;2023-02-27T14:56:29;6.10;99.90
16289;DHT22;26089;43.538;5.250;2023-02-27T14:58:55;6.10;99.90
16289;DHT22;26089;43.538;5.250;2023-02-27T15:01:24;6.00;99.90
16289;DHT22;26089;43.538;5.250;2023-02-27T15:03:53;6.40;99.90
16289;DHT22;26089;43.538;5.250;2023-02-27T15:06:27;6.10;99.90
16289;DHT22;26089;43.538;5.250;2023-02-27T15:08:55;6.10;99.90
16289;DHT22;26089;43.538;5.250;2023-02-27T15:11:24;6.10;99.90
16289;DHT22;26089;43.538;5.250;2023-02-27T15:13:56;6.20;99.90
16289;DHT22;26089;43.538;5.250;2023-02-27T15:16:36;4.80;99.90
16289;DHT22;26089;43.538;5.250;2023-02-27T15:19:12;6.30;99.90
16289;DHT22;26089;43.538;5.250;2023-02-27T15:21:40;6.30;99.90
16289;DHT22;26089;43.538;5.250;2023-02-27T15:24:22;6.20;99.90
16289;DHT22;26089;43.538;5.250;2023-02-27T15:26:52;6.30;99.90
16289;DHT22;26089;43.538;5.250;2023-02-27T15:29:24;6.20;99.90
16289;DHT22;26089;43.538;5.250;2023-02-27T15:31:52;6.20;99.90
16289;DHT22;26089;43.538;5.250;2023-02-27T15:34:19;6.20;99.90
16289;DHT22;26089;43.538;5.250;2023-02-27T15:36:51;6.10;99.90
16289;DHT22;26089;43.538;5.250;2023-02-27T15:39:20;6.10;99.90
16289;DHT22;26089;43.538;5.250;2023-02-27T15:41:50;6.00;99.90
16289;DHT22;26089;43.538;5.250;2023-02-27T15:44:22;6.00;99.90
16289;DHT22;26089;43.538;5.250;2023-02-27T15:46:50;6.00;99.90
16289;DHT22;26089;43.538;5.250;2023-02-27T15:49:19;5.90;99.90
16289;DHT22;26089;43.538;5.250;2023-02-27T15:51:48;6.00;99.90
16289;DHT22;26089;43.538;5.250;2023-02-27T15:54:20;6.60;99.90
16289;DHT22;26089;43.538;5.250;2023-02-27T15:56:48;6.00;99.90
16289;DHT22;26089;43.538;5.250;2023-02-27T15:59:16;5.90;99.90
16289;DHT22;26089;43.538;5.250;2023-02-27T16:01:47;5.90;99.90
16289;DHT22;26089;43.538;5.250;2023-02-27T16:04:22;5.90;99.90
16289;DHT22;26089;43.538;5.250;2023-02-27T16:06:57;6.00;99.90
16289;DHT22;26089;43.538;5.250;2023-02-27T16:09:28;6.10;99.90
16289;DHT22;26089;43.538;5.250;2023-02-27T16:12:20;6.10;99.90
16289;DHT22;26089;43.538;5.250;2023-02-27T16:14:49;6.10;99.90
16289;DHT22;26089;43.538;5.250;2023-02-27T16:17:36;6.10;99.90
16289;DHT22;26089;43.538;5.250;2023-02-27T16:20:28;6.20;99.90
16289;DHT22;26089;43.538;5.250;2023-02-27T16:23:02;6.20;99.90
16289;DHT22;26089;43.538;5.250;2023-02-27T16:25:30;7.00;99.90
16289;DHT22;26089;43.538;5.250;2023-02-27T16:27:57;6.20;99.90
16289;DHT22;26089;43.538;5.250;2023-02-27T16:30:24;6.20;99.90
16289;DHT22;26089;43.538;5.250;2023-02-27T16:32:58;6.20;99.90